createdAt,value
2018-06-30T00:00:16.733Z,61.71
2018-06-30T00:02:45.289Z,61.41
2018-06-30T00:05:16.510Z,61.72
2018-06-30T00:07:45.018Z,61.04
2018-06-30T00:10:18.553Z,61.15
2018-06-30T00:12:46.988Z,61.90
2018-06-30T00:15:15.616Z,62.25
2018-06-30T00:17:43.884Z,63.65
2018-06-30T00:20:12.476Z,62.66
2018-06-30T00:22:41.584Z,62.33
2018-06-30T00:25:09.906Z,62.64
2018-06-30T00:27:38.466Z,62.89
2018-06-30T00:30:07.025Z,63.71
2018-06-30T00:32:35.542Z,62.84
2018-06-30T00:35:04.333Z,63.97
2018-06-30T00:37:33.006Z,63.31
2018-06-30T00:40:01.604Z,64.55
2018-06-30T00:42:30.661Z,65.13
2018-06-30T00:44:59.681Z,64.55
2018-06-30T00:47:28.467Z,64.82
2018-06-30T00:49:57.198Z,65.37
2018-06-30T00:52:25.751Z,64.77
2018-06-30T00:54:54.465Z,65.64
2018-06-30T00:57:23.341Z,65.75
2018-06-30T00:59:52.100Z,66.62
2018-06-30T01:02:20.606Z,66.68
2018-06-30T01:04:49.038Z,66.98
2018-06-30T01:07:17.698Z,67.26
2018-06-30T01:09:46.173Z,67.17
2018-06-30T01:12:15.049Z,67.87
2018-06-30T01:14:43.773Z,67.23
2018-06-30T01:17:12.134Z,67.11
2018-06-30T01:19:40.841Z,67.51
2018-06-30T01:22:09.370Z,68.24
2018-06-30T01:24:38.192Z,68.07
2018-06-30T01:27:06.806Z,68.14
2018-06-30T01:29:35.435Z,69.18
2018-06-30T01:32:04.027Z,69.28
2018-06-30T01:34:33.249Z,69.52
2018-06-30T01:37:02.683Z,69.34
2018-06-30T01:39:31.340Z,69.53
2018-06-30T01:42:00.085Z,70.03
2018-06-30T01:44:28.573Z,70.03
2018-06-30T01:46:57.003Z,70.23
2018-06-30T01:49:25.596Z,70.88
2018-06-30T01:51:54.848Z,71.10
2018-06-30T01:54:23.642Z,70.96
2018-06-30T01:56:52.141Z,69.92
2018-06-30T01:59:20.882Z,70.81
2018-06-30T02:01:52.364Z,70.81
2018-06-30T02:04:20.869Z,71.12
2018-06-30T02:06:49.815Z,71.30
2018-06-30T02:09:18.324Z,71.60
2018-06-30T02:11:47.327Z,71.70
2018-06-30T02:14:15.749Z,71.24
2018-06-30T02:16:44.092Z,71.69
2018-06-30T02:19:12.623Z,71.50
2018-06-30T02:21:40.919Z,72.30
2018-06-30T02:24:09.612Z,72.12
2018-06-30T02:26:39.030Z,72.16
2018-06-30T02:29:07.929Z,72.01
2018-06-30T02:31:36.375Z,71.27
2018-06-30T02:34:05.547Z,72.07
2018-06-30T02:36:34.237Z,71.37
2018-06-30T02:39:03.213Z,71.07
2018-06-30T02:41:31.649Z,72.15
2018-06-30T02:44:00.352Z,72.01
2018-06-30T02:46:29.047Z,72.26
2018-06-30T02:48:57.600Z,72.70
2018-06-30T02:51:26.377Z,72.91
2018-06-30T02:53:55.000Z,73.10
2018-06-30T02:56:23.667Z,72.69
2018-06-30T02:58:52.925Z,73.09
2018-06-30T03:01:21.755Z,73.49
2018-06-30T03:03:50.539Z,72.55
2018-06-30T03:06:18.921Z,73.12
2018-06-30T03:08:47.550Z,73.60
2018-06-30T03:11:15.839Z,72.46
2018-06-30T03:13:44.326Z,72.56
2018-06-30T03:16:16.181Z,72.95
2018-06-30T03:18:45.862Z,72.97
2018-06-30T03:21:14.285Z,73.20
2018-06-30T03:23:43.058Z,72.42
2018-06-30T03:26:11.674Z,73.81
2018-06-30T03:28:40.432Z,73.23
2018-06-30T03:31:09.175Z,73.94
2018-06-30T03:33:37.680Z,73.55
2018-06-30T03:36:06.326Z,73.94
2018-06-30T03:38:34.943Z,73.26
2018-06-30T03:41:04.565Z,73.70
2018-06-30T03:43:32.969Z,73.89
2018-06-30T03:46:01.503Z,73.13
2018-06-30T03:48:29.888Z,73.22
2018-06-30T03:50:58.349Z,72.87
2018-06-30T03:53:27.265Z,73.36
2018-06-30T03:55:55.935Z,74.00
2018-06-30T03:58:24.346Z,73.66
2018-06-30T04:00:53.051Z,73.68
2018-06-30T04:03:22.604Z,73.43
2018-06-30T04:05:51.680Z,73.88
2018-06-30T04:08:20.298Z,73.74
2018-06-30T04:10:48.788Z,73.29
2018-06-30T04:13:17.284Z,72.76
2018-06-30T04:15:46.067Z,72.78
2018-06-30T04:18:14.661Z,72.64
2018-06-30T04:20:43.112Z,72.16
2018-06-30T04:23:11.870Z,71.45
2018-06-30T04:25:40.298Z,70.74
2018-06-30T04:28:09.197Z,71.32
2018-06-30T04:30:38.082Z,70.48
2018-06-30T04:33:10.058Z,70.43
2018-06-30T04:35:38.774Z,71.34
2018-06-30T04:38:07.416Z,70.65
2018-06-30T04:40:36.000Z,70.12
2018-06-30T04:43:04.730Z,70.39
2018-06-30T04:45:33.999Z,70.04
2018-06-30T04:48:02.675Z,71.11
2018-06-30T04:50:31.237Z,69.84
2018-06-30T04:52:59.850Z,69.52
2018-06-30T04:55:28.253Z,70.04
2018-06-30T04:57:56.533Z,69.62
2018-06-30T05:00:25.140Z,69.18
2018-06-30T05:02:53.627Z,69.97
2018-06-30T05:05:22.147Z,68.85
2018-06-30T05:07:50.601Z,68.62
2018-06-30T05:10:18.995Z,69.11
2018-06-30T05:12:47.767Z,68.79
2018-06-30T05:15:16.247Z,68.34
2018-06-30T05:17:44.847Z,67.67
2018-06-30T05:20:13.340Z,67.57
2018-06-30T05:22:41.825Z,67.51
2018-06-30T05:25:10.579Z,67.21
2018-06-30T05:27:39.128Z,66.75
2018-06-30T05:30:07.631Z,66.98
2018-06-30T05:32:40.302Z,65.32
2018-06-30T05:35:09.469Z,65.70
2018-06-30T05:37:37.865Z,66.03
2018-06-30T05:40:06.186Z,66.21
2018-06-30T05:42:34.653Z,66.40
2018-06-30T05:45:03.287Z,65.31
2018-06-30T05:47:43.931Z,65.52
2018-06-30T05:50:12.531Z,64.83
2018-06-30T05:52:40.997Z,63.54
2018-06-30T05:55:09.685Z,63.93
2018-06-30T05:57:38.504Z,63.61
2018-06-30T06:00:07.590Z,64.23
2018-06-30T06:02:35.997Z,63.67
2018-06-30T06:05:05.584Z,63.71
2018-06-30T06:07:33.951Z,63.34
2018-06-30T06:10:03.323Z,63.89
2018-06-30T06:12:31.868Z,62.72
2018-06-30T06:15:03.027Z,62.15
2018-06-30T06:17:31.547Z,62.23
2018-06-30T06:20:00.127Z,62.01
2018-06-30T06:22:31.545Z,61.18
2018-06-30T06:25:03.185Z,60.80
2018-06-30T06:27:31.727Z,59.99
2018-06-30T06:30:00.304Z,61.02
2018-06-30T06:32:28.911Z,60.87
2018-06-30T06:34:57.911Z,60.40
2018-06-30T06:37:26.240Z,60.38
2018-06-30T06:39:54.676Z,60.40
2018-06-30T06:42:23.169Z,60.03
2018-06-30T06:44:51.715Z,60.45
2018-06-30T06:47:20.512Z,60.35
2018-06-30T06:49:49.206Z,60.07
2018-06-30T06:52:17.698Z,60.90
2018-06-30T06:54:46.343Z,60.88
2018-06-30T06:57:14.999Z,60.46
2018-06-30T06:59:43.498Z,60.36
2018-06-30T07:02:11.980Z,60.76
2018-06-30T07:04:40.766Z,59.67
2018-06-30T07:07:09.822Z,58.55
2018-06-30T07:09:38.353Z,58.25
2018-06-30T07:12:06.865Z,57.88
2018-06-30T07:14:35.421Z,59.04
2018-06-30T07:17:04.007Z,58.16
2018-06-30T07:19:33.029Z,57.56
2018-06-30T07:22:02.127Z,57.45
2018-06-30T07:24:30.785Z,57.08
2018-06-30T07:26:59.403Z,57.36
2018-06-30T07:29:28.185Z,57.92
2018-06-30T07:31:56.841Z,57.00
2018-06-30T07:34:25.640Z,58.30
2018-06-30T07:36:54.149Z,57.04
2018-06-30T07:39:22.719Z,58.20
2018-06-30T07:41:51.476Z,57.18
2018-06-30T07:44:20.216Z,57.64
2018-06-30T07:46:48.771Z,56.50
2018-06-30T07:49:17.349Z,55.96
2018-06-30T07:51:46.396Z,56.16
2018-06-30T07:54:14.949Z,56.03
2018-06-30T07:56:43.816Z,55.77
2018-06-30T07:59:12.328Z,55.01
2018-06-30T08:01:40.839Z,54.58
2018-06-30T08:04:09.338Z,55.30
2018-06-30T08:06:37.975Z,55.92
2018-06-30T08:09:09.583Z,55.96
2018-06-30T08:11:39.041Z,55.35
2018-06-30T08:14:07.636Z,55.67
2018-06-30T08:16:36.195Z,54.68
2018-06-30T08:19:05.636Z,54.98
2018-06-30T08:21:34.904Z,54.65
2018-06-30T08:24:04.720Z,54.23
2018-06-30T08:26:34.194Z,54.47
2018-06-30T08:29:05.376Z,54.58
2018-06-30T08:31:33.955Z,54.76
2018-06-30T08:34:05.397Z,54.21
2018-06-30T08:36:38.171Z,53.31
2018-06-30T08:39:11.468Z,54.30
2018-06-30T08:41:41.141Z,52.33
2018-06-30T08:44:09.721Z,52.87
2018-06-30T08:46:38.922Z,51.90
2018-06-30T08:49:08.183Z,52.01
2018-06-30T08:51:36.939Z,52.37
2018-06-30T08:54:06.085Z,51.37
2018-06-30T08:56:35.641Z,50.25
2018-06-30T08:59:05.019Z,49.90
2018-06-30T09:01:34.298Z,49.96
2018-06-30T09:04:03.837Z,51.22
2018-06-30T09:06:33.279Z,49.81
2018-06-30T09:09:06.271Z,50.17
2018-06-30T09:11:35.644Z,49.64
2018-06-30T09:14:04.735Z,49.02
2018-06-30T09:16:34.684Z,49.67
2018-06-30T09:19:06.198Z,49.12
2018-06-30T09:21:35.060Z,48.98
2018-06-30T09:24:04.389Z,49.25
2018-06-30T09:26:33.728Z,48.40
2018-06-30T09:29:05.146Z,49.33
2018-06-30T09:31:34.662Z,49.63
2018-06-30T09:34:05.241Z,47.52
2018-06-30T09:36:34.441Z,46.68
2018-06-30T09:39:04.192Z,45.17
2018-06-30T09:41:33.385Z,45.57
2018-06-30T09:44:04.529Z,45.03
2018-06-30T09:46:33.672Z,45.70
2018-06-30T09:49:04.542Z,45.60
2018-06-30T09:51:34.218Z,45.98
2018-06-30T09:54:03.810Z,45.67
2018-06-30T09:56:33.139Z,45.20
2018-06-30T09:59:05.166Z,44.02
2018-06-30T10:01:35.442Z,44.61
2018-06-30T10:04:06.210Z,45.00
2018-06-30T10:06:35.464Z,45.00
2018-06-30T10:09:07.388Z,44.46
2018-06-30T10:11:37.207Z,44.96
2018-06-30T10:14:07.117Z,44.25
2018-06-30T10:16:37.424Z,45.08
2018-06-30T10:19:06.679Z,43.98
2018-06-30T10:21:35.931Z,44.26
2018-06-30T10:24:06.198Z,44.44
2018-06-30T10:26:34.948Z,44.47
2018-06-30T10:29:04.912Z,43.91
2018-06-30T10:31:33.552Z,43.59
2018-06-30T10:34:04.329Z,43.06
2018-06-30T10:36:33.834Z,43.97
2018-06-30T10:39:06.380Z,43.88
2018-06-30T10:41:35.142Z,43.40
2018-06-30T10:44:05.439Z,42.67
2018-06-30T10:46:35.652Z,43.25
2018-06-30T10:49:05.556Z,43.88
2018-06-30T10:51:35.431Z,43.14
2018-06-30T10:54:05.009Z,42.62
2018-06-30T10:56:34.060Z,43.63
2018-06-30T10:59:03.358Z,42.73
2018-06-30T11:01:32.759Z,42.53
2018-06-30T11:04:03.016Z,42.00
2018-06-30T11:06:32.225Z,42.30
2018-06-30T11:09:02.454Z,41.40
2018-06-30T11:11:33.381Z,41.17
2018-06-30T11:14:04.074Z,41.88
2018-06-30T11:16:33.831Z,40.68
2018-06-30T11:19:04.301Z,40.84
2018-06-30T11:21:34.661Z,40.20
2018-06-30T11:24:04.482Z,38.98
2018-06-30T11:26:33.801Z,39.98
2018-06-30T11:29:03.839Z,40.10
2018-06-30T11:31:34.237Z,40.41
2018-06-30T11:34:03.829Z,39.76
2018-06-30T11:36:33.185Z,40.43
2018-06-30T11:39:08.519Z,39.36
2018-06-30T11:41:37.479Z,39.13
2018-06-30T11:44:06.048Z,38.42
2018-06-30T11:46:35.565Z,37.30
2018-06-30T11:49:05.012Z,37.75
2018-06-30T11:51:35.315Z,36.78
2018-06-30T11:54:05.048Z,35.64
2018-06-30T11:56:34.611Z,35.73
2018-06-30T11:59:04.056Z,35.43
2018-06-30T12:01:34.034Z,35.37
2018-06-30T12:04:05.017Z,34.65
2018-06-30T12:06:34.258Z,33.69
2018-06-30T12:09:05.569Z,33.47
2018-06-30T12:11:35.322Z,33.28
2018-06-30T12:14:06.237Z,32.71
2018-06-30T12:16:35.382Z,32.69
2018-06-30T12:19:05.944Z,32.63
2018-06-30T12:21:35.598Z,32.54
2018-06-30T12:24:06.368Z,31.70
2018-06-30T12:26:35.689Z,33.07
2018-06-30T12:29:05.295Z,33.41
2018-06-30T12:31:35.179Z,33.63
2018-06-30T12:34:04.764Z,31.28
2018-06-30T12:36:34.227Z,30.82
2018-06-30T12:39:06.424Z,31.70
2018-06-30T12:41:36.231Z,31.81
2018-06-30T12:44:05.179Z,31.52
2018-06-30T12:46:34.432Z,30.79
2018-06-30T12:49:04.205Z,31.46
2018-06-30T12:51:34.116Z,31.14
2018-06-30T12:54:03.738Z,30.95
2018-06-30T12:56:33.300Z,30.90
2018-06-30T12:59:04.525Z,30.36
2018-06-30T13:01:33.372Z,30.29
2018-06-30T13:04:03.604Z,30.91
2018-06-30T13:06:34.359Z,30.61
2018-06-30T13:09:07.996Z,30.01
2018-06-30T13:11:36.652Z,29.62
2018-06-30T13:14:06.491Z,28.75
2018-06-30T13:16:36.016Z,28.99
2018-06-30T13:19:06.595Z,28.45
2018-06-30T13:21:35.845Z,27.98
2018-06-30T13:24:05.836Z,28.31
2018-06-30T13:26:35.311Z,27.24
2018-06-30T13:29:04.757Z,27.16
2018-06-30T13:31:33.794Z,26.08
2018-06-30T13:34:04.871Z,27.72
2018-06-30T13:36:34.396Z,27.19
2018-06-30T13:39:06.533Z,26.63
2018-06-30T13:41:36.053Z,27.72
2018-06-30T13:44:06.760Z,26.87
2018-06-30T13:46:35.437Z,27.74
2018-06-30T13:49:05.511Z,26.68
2018-06-30T13:51:34.491Z,27.33
2018-06-30T13:54:06.274Z,26.60
2018-06-30T13:56:35.269Z,27.07
2018-06-30T13:59:05.401Z,26.36
2018-06-30T14:01:34.619Z,25.96
2018-06-30T14:04:03.960Z,26.44
2018-06-30T14:06:33.541Z,26.50
2018-06-30T14:09:06.305Z,26.70
2018-06-30T14:11:35.199Z,26.15
2018-06-30T14:14:05.858Z,25.63
2018-06-30T14:16:34.979Z,26.50
2018-06-30T14:19:04.112Z,26.28
2018-06-30T14:21:33.053Z,26.66
2018-06-30T14:24:04.057Z,26.64
2018-06-30T14:26:34.644Z,26.34
2018-06-30T14:29:05.169Z,26.49
2018-06-30T14:31:34.860Z,26.45
2018-06-30T14:34:06.077Z,25.69
2018-06-30T14:36:35.239Z,25.33
2018-06-30T14:39:07.268Z,26.14
2018-06-30T14:41:36.366Z,26.71
2018-06-30T14:44:06.255Z,25.55
2018-06-30T14:46:36.125Z,25.63
2018-06-30T14:49:06.280Z,24.27
2018-06-30T14:51:35.742Z,25.14
2018-06-30T14:54:05.840Z,24.60
2018-06-30T14:56:35.404Z,25.68
2018-06-30T14:59:06.094Z,25.78
2018-06-30T15:01:35.868Z,24.49
2018-06-30T15:04:08.024Z,24.40
2018-06-30T15:06:37.026Z,24.82
2018-06-30T15:09:11.536Z,24.66
2018-06-30T15:11:41.212Z,25.04
2018-06-30T15:14:10.108Z,23.94
2018-06-30T15:16:39.590Z,23.93
2018-06-30T15:19:08.828Z,24.10
2018-06-30T15:21:37.612Z,24.10
2018-06-30T15:24:13.357Z,25.17
2018-06-30T15:26:42.159Z,24.08
2018-06-30T15:29:10.775Z,24.47
2018-06-30T15:31:39.608Z,24.78
2018-06-30T15:34:08.207Z,24.34
2018-06-30T15:36:36.633Z,25.69
2018-06-30T15:39:08.963Z,25.18
2018-06-30T15:41:37.673Z,26.44
2018-06-30T15:44:07.013Z,26.68
2018-06-30T15:46:36.158Z,25.90
2018-06-30T15:49:05.916Z,25.79
2018-06-30T15:51:35.397Z,25.90
2018-06-30T15:54:05.374Z,26.51
2018-06-30T15:56:34.637Z,26.33
2018-06-30T15:59:10.280Z,25.98
2018-06-30T16:01:38.944Z,26.31
2018-06-30T16:04:07.787Z,25.17
2018-06-30T16:06:42.024Z,25.23
2018-06-30T16:09:13.632Z,25.88
2018-06-30T16:11:47.496Z,25.19
2018-06-30T16:14:23.176Z,25.42
2018-06-30T16:19:12.568Z,25.81
2018-06-30T16:21:41.018Z,25.10
2018-06-30T16:24:09.713Z,25.12
2018-06-30T16:26:41.376Z,24.96
2018-06-30T16:29:10.131Z,24.43
2018-06-30T16:31:38.768Z,25.13
2018-06-30T16:34:08.723Z,24.49
2018-06-30T16:36:37.935Z,25.88
2018-06-30T16:39:09.821Z,24.98
2018-06-30T16:41:39.778Z,26.02
2018-06-30T16:44:08.333Z,24.62
2018-06-30T16:46:37.453Z,25.44
2018-06-30T16:49:06.720Z,25.58
2018-06-30T16:51:35.284Z,25.88
2018-06-30T16:54:04.374Z,25.46
2018-06-30T16:56:33.231Z,25.63
2018-06-30T16:59:01.904Z,25.93
2018-06-30T17:01:30.672Z,25.65
2018-06-30T17:03:59.891Z,24.65
2018-06-30T17:06:28.442Z,25.16
2018-06-30T17:08:57.003Z,24.71
2018-06-30T17:11:25.561Z,24.02
2018-06-30T17:13:54.144Z,24.69
2018-06-30T17:16:22.612Z,24.85
2018-06-30T17:18:51.284Z,24.69
2018-06-30T17:21:19.829Z,28.56
2018-06-30T17:23:48.375Z,23.86
2018-06-30T17:26:17.127Z,24.24
2018-06-30T17:28:45.765Z,23.43
2018-06-30T17:31:14.411Z,24.69
2018-06-30T17:33:43.676Z,23.49
2018-06-30T17:36:12.204Z,24.41
2018-06-30T17:38:41.016Z,24.40
2018-06-30T17:41:09.652Z,24.86
2018-06-30T17:43:38.314Z,24.66
2018-06-30T17:46:07.230Z,24.57
2018-06-30T17:48:35.827Z,24.09
2018-06-30T17:51:04.507Z,23.84
2018-06-30T17:53:33.185Z,24.44
2018-06-30T17:56:01.496Z,24.31
2018-06-30T17:58:30.059Z,23.59
2018-06-30T18:00:58.619Z,23.52
2018-06-30T18:03:27.165Z,24.18
2018-06-30T18:05:55.525Z,24.58
2018-06-30T18:08:24.028Z,23.96
2018-06-30T18:10:52.421Z,24.02
2018-06-30T18:13:21.096Z,24.16
2018-06-30T18:15:49.436Z,24.19
2018-06-30T18:18:18.129Z,23.89
2018-06-30T18:20:46.831Z,24.01
2018-06-30T18:23:15.412Z,23.90
2018-06-30T18:25:44.369Z,24.61
2018-06-30T18:28:12.863Z,24.32
2018-06-30T18:30:41.435Z,23.82
2018-06-30T18:33:09.911Z,24.52
2018-06-30T18:35:38.877Z,24.19
2018-06-30T18:38:07.699Z,24.70
2018-06-30T18:40:36.528Z,24.58
2018-06-30T18:43:05.401Z,24.20
2018-06-30T18:45:34.150Z,24.79
2018-06-30T18:48:02.982Z,24.79
2018-06-30T18:50:31.837Z,25.07
2018-06-30T18:53:00.551Z,24.81
2018-06-30T18:55:29.100Z,24.05
2018-06-30T18:57:57.806Z,24.30
2018-06-30T19:00:26.299Z,24.66
2018-06-30T19:02:54.902Z,24.32
2018-06-30T19:05:23.563Z,24.87
2018-06-30T19:07:52.085Z,25.32
2018-06-30T19:10:20.603Z,25.22
2018-06-30T19:12:49.139Z,25.28
2018-06-30T19:15:17.744Z,25.34
2018-06-30T19:17:46.306Z,24.89
2018-06-30T19:20:15.401Z,25.89
2018-06-30T19:22:44.696Z,26.04
2018-06-30T19:25:13.344Z,25.62
2018-06-30T19:27:42.276Z,26.33
2018-06-30T19:30:11.279Z,26.54
2018-06-30T19:32:40.260Z,25.88
2018-06-30T19:35:08.897Z,25.77
2018-06-30T19:37:37.438Z,26.65
2018-06-30T19:40:06.377Z,26.42
2018-06-30T19:42:35.629Z,26.72
2018-06-30T19:45:04.912Z,26.98
2018-06-30T19:47:35.572Z,26.55
2018-06-30T19:50:05.331Z,26.61
2018-06-30T19:52:34.881Z,27.33
2018-06-30T19:55:04.442Z,27.46
2018-06-30T19:57:34.125Z,27.06
2018-06-30T20:00:03.123Z,28.05
2018-06-30T20:02:31.985Z,28.61
2018-06-30T20:05:00.957Z,28.51
2018-06-30T20:07:34.153Z,29.32
2018-06-30T20:10:04.580Z,29.75
2018-06-30T20:12:34.222Z,29.99
2018-06-30T20:15:03.213Z,29.80
2018-06-30T20:17:33.073Z,30.54
2018-06-30T20:20:03.133Z,33.33
2018-06-30T20:22:32.148Z,30.65
2018-06-30T20:25:01.116Z,31.31
2018-06-30T20:27:30.249Z,31.23
2018-06-30T20:29:58.817Z,31.41
2018-06-30T20:32:28.570Z,31.93
2018-06-30T20:34:58.845Z,31.23
2018-06-30T20:37:28.730Z,31.44
2018-06-30T20:39:58.336Z,32.09
2018-06-30T20:42:27.888Z,31.09
2018-06-30T20:44:58.061Z,31.15
2018-06-30T20:47:27.971Z,31.35
2018-06-30T20:49:57.339Z,31.41
2018-06-30T20:52:27.290Z,31.84
2018-06-30T20:54:55.896Z,31.32
2018-06-30T20:57:24.409Z,32.22
2018-06-30T20:59:52.997Z,31.50
2018-06-30T21:02:21.761Z,32.16
2018-06-30T21:04:50.522Z,32.52
2018-06-30T21:07:19.329Z,32.20
2018-06-30T21:09:47.946Z,32.16
2018-06-30T21:12:16.305Z,31.64
2018-06-30T21:14:45.205Z,32.60
2018-06-30T21:17:13.773Z,32.29
2018-06-30T21:19:42.332Z,33.00
2018-06-30T21:22:11.056Z,32.03
2018-06-30T21:24:39.504Z,32.17
2018-06-30T21:27:08.445Z,32.55
2018-06-30T21:29:36.703Z,32.69
2018-06-30T21:32:06.084Z,32.34
2018-06-30T21:34:34.888Z,33.02
2018-06-30T21:37:05.001Z,33.47
2018-06-30T21:39:34.660Z,32.69
2018-06-30T21:42:03.719Z,32.75
2018-06-30T21:44:33.496Z,32.67
2018-06-30T21:47:02.946Z,32.83
2018-06-30T21:49:32.730Z,33.49
2018-06-30T21:52:01.532Z,32.96
2018-06-30T21:54:30.063Z,33.76
2018-06-30T21:56:58.824Z,34.37
2018-06-30T21:59:27.300Z,33.13
2018-06-30T22:01:56.082Z,34.05
2018-06-30T22:04:25.458Z,33.31
2018-06-30T22:06:55.126Z,33.57
2018-06-30T22:09:24.037Z,33.07
2018-06-30T22:11:52.913Z,33.30
2018-06-30T22:14:21.805Z,33.50
2018-06-30T22:16:55.120Z,34.44
2018-06-30T22:19:23.636Z,34.29
2018-06-30T22:21:52.189Z,34.09
2018-06-30T22:24:20.700Z,33.88
2018-06-30T22:26:49.368Z,33.64
2018-06-30T22:29:18.219Z,34.53
2018-06-30T22:31:46.559Z,33.95
2018-06-30T22:34:15.078Z,35.12
2018-06-30T22:36:43.421Z,34.02
2018-06-30T22:39:12.258Z,35.22
2018-06-30T22:41:40.886Z,34.49
2018-06-30T22:44:09.360Z,34.43
2018-06-30T22:46:37.900Z,34.52
2018-06-30T22:49:07.379Z,34.52
2018-06-30T22:51:37.011Z,35.11
2018-06-30T22:54:06.387Z,34.94
2018-06-30T22:56:35.924Z,35.08
2018-06-30T22:59:05.045Z,34.92
2018-06-30T23:01:34.479Z,34.78
2018-06-30T23:04:03.730Z,34.68
2018-06-30T23:06:33.069Z,34.80
2018-06-30T23:09:02.389Z,35.82
2018-06-30T23:11:31.437Z,36.03
2018-06-30T23:14:00.393Z,35.85
2018-06-30T23:16:29.104Z,36.46
2018-06-30T23:18:58.776Z,35.50
2018-06-30T23:21:28.292Z,35.82
2018-06-30T23:23:57.289Z,36.33
2018-06-30T23:26:26.437Z,36.98
2018-06-30T23:28:55.196Z,36.15
2018-06-30T23:31:24.354Z,35.95
2018-06-30T23:33:54.371Z,36.12
2018-06-30T23:36:22.932Z,36.34
2018-06-30T23:38:51.730Z,35.28
2018-06-30T23:41:20.433Z,35.63
2018-06-30T23:43:49.325Z,36.47
2018-06-30T23:46:18.091Z,36.43
2018-06-30T23:48:46.686Z,36.13
2018-06-30T23:51:15.298Z,36.10
2018-06-30T23:53:44.021Z,36.29
2018-06-30T23:56:12.583Z,36.37
2018-06-30T23:58:41.086Z,36.47
